Time;durP1;ratioP1;P1;durP2;ratioP2;P2;SDS_P1;SDS_P2;PMS_P1;PMS_P2;Temp;Humidity;BMP_temperature;BMP_pressure;BME280_temperature;BME280_humidity;BME280_pressure;Samples;Min_cycle;Max_cycle;Signal;HPM_P1;HPM_P2
2022/11/22 00:02:20;;;;;;;22.00;12.45;;;9.00;90.80;;;;;;5003153;28;20022;-73
2022/11/22 00:04:46;;;;;;;23.77;12.20;;;9.00;90.60;;;;;;4991753;28;20036;-61
2022/11/22 00:07:11;;;;;;;18.10;10.27;;;9.00;90.50;;;;;;4997099;28;20290;-66
2022/11/22 00:09:37;;;;;;;15.77;9.60;;;9.00;90.50;;;;;;4997692;28;20038;-71
2022/11/22 00:12:03;;;;;;;15.47;8.77;;;9.00;90.50;;;;;;4985231;28;20049;-65
2022/11/22 00:14:28;;;;;;;17.67;9.60;;;9.00;90.60;;;;;;4997897;28;20065;-57
2022/11/22 00:16:54;;;;;;;19.13;8.73;;;8.90;90.70;;;;;;4995065;28;20026;-69
2022/11/22 00:19:19;;;;;;;18.43;7.57;;;8.90;90.50;;;;;;4991510;28;20065;-59
2022/11/22 00:21:45;;;;;;;22.97;8.43;;;8.90;90.50;;;;;;4990046;28;20030;-56
2022/11/22 00:24:12;;;;;;;16.80;7.47;;;8.90;90.50;;;;;;4990297;28;20212;-60
2022/11/22 00:26:37;;;;;;;;;;;8.90;90.40;;;;;;4993310;28;20037;-56
2022/11/22 00:29:03;;;;;;;15.27;7.22;;;8.90;90.40;;;;;;4991536;28;20431;-62
2022/11/22 00:31:28;;;;;;;16.00;7.83;;;8.90;90.40;;;;;;4994458;28;20042;-56
2022/11/22 00:33:54;;;;;;;16.87;8.27;;;8.80;90.50;;;;;;5001600;28;20040;-56
2022/11/22 00:36:20;;;;;;;16.10;7.73;;;8.80;90.70;;;;;;4989866;28;20023;-67
2022/11/22 00:38:45;;;;;;;14.23;7.17;;;8.80;90.50;;;;;;4990924;28;20022;-63
2022/11/22 00:41:11;;;;;;;18.93;7.90;;;8.80;90.60;;;;;;4991038;28;20033;-73
2022/11/22 00:43:36;;;;;;;13.17;6.87;;;8.80;90.70;;;;;;4987421;28;20157;-66
2022/11/22 00:46:02;;;;;;;17.13;8.27;;;8.70;90.60;;;;;;4997860;28;20029;-71
2022/11/22 00:48:28;;;;;;;12.37;7.77;;;8.80;90.80;;;;;;4994910;28;20447;-69
2022/11/22 00:50:54;;;;;;;15.80;7.70;;;8.70;90.80;;;;;;4982888;28;20144;-67
2022/11/22 00:53:20;;;;;;;15.95;8.68;;;8.70;90.80;;;;;;4996377;28;20026;-74
2022/11/22 00:55:46;;;;;;;17.85;9.27;;;8.70;90.80;;;;;;4990855;28;20023;-63
2022/11/22 00:58:12;;;;;;;21.02;8.93;;;8.80;90.70;;;;;;4993720;28;20045;-71
2022/11/22 01:00:38;;;;;;;16.77;9.43;;;8.70;90.60;;;;;;4987450;28;20045;-70
2022/11/22 01:03:03;;;;;;;23.13;9.93;;;8.70;90.90;;;;;;4996037;28;20022;-74
2022/11/22 01:05:29;;;;;;;22.80;10.07;;;8.60;90.90;;;;;;4990289;28;20038;-68
2022/11/22 01:07:54;;;;;;;21.20;9.83;;;8.60;90.90;;;;;;4989820;28;20088;-73
2022/11/22 01:10:21;;;;;;;22.63;10.10;;;8.60;90.90;;;;;;4985571;28;20486;-65
2022/11/22 01:12:46;;;;;;;20.15;9.32;;;8.60;90.90;;;;;;4978569;28;20042;-64
2022/11/22 01:15:12;;;;;;;15.83;7.83;;;8.60;90.80;;;;;;4990100;28;20105;-64
2022/11/22 01:17:38;;;;;;;18.38;8.30;;;8.60;90.90;;;;;;4992664;28;20061;-70
2022/11/22 01:20:04;;;;;;;19.30;9.10;;;8.60;90.90;;;;;;4991322;28;20479;-68
2022/11/22 01:22:30;;;;;;;14.95;7.18;;;8.60;90.80;;;;;;4988589;28;20410;-69
2022/11/22 01:24:56;;;;;;;21.57;7.63;;;8.60;90.90;;;;;;4985197;28;20039;-64
2022/11/22 01:27:21;;;;;;;16.07;8.07;;;8.60;90.70;;;;;;4990902;28;20349;-69
2022/11/22 01:29:47;;;;;;;17.33;8.43;;;8.50;90.90;;;;;;4994443;28;20407;-73
2022/11/22 01:32:12;;;;;;;25.53;9.60;;;8.50;90.70;;;;;;4985780;28;20046;-73
2022/11/22 01:34:38;;;;;;;19.37;8.43;;;8.60;90.60;;;;;;4989544;28;20499;-70
2022/11/22 01:37:04;;;;;;;19.23;8.23;;;8.50;90.80;;;;;;4986478;28;20121;-71
2022/11/22 01:39:29;;;;;;;12.15;7.28;;;8.50;90.70;;;;;;4993271;28;20034;-65
2022/11/22 01:41:55;;;;;;;17.33;6.97;;;8.50;90.60;;;;;;4985704;28;20514;-70
2022/11/22 01:44:29;;;;;;;15.07;6.80;;;8.60;90.70;;;;;;4993568;28;20569;-69
2022/11/22 01:47:15;;;;;;;16.70;6.95;;;8.50;90.50;;;;;;4991923;28;20035;-71
2022/11/22 01:49:56;;;;;;;18.45;6.68;;;8.60;90.50;;;;;;4981359;28;20018;-67
2022/11/22 01:52:27;;;;;;;11.18;6.15;;;8.60;90.30;;;;;;4991872;28;20038;-65
2022/11/22 01:55:02;;;;;;;10.65;6.20;;;8.50;90.40;;;;;;5000082;28;20024;-66
2022/11/22 01:57:32;;;;;;;13.30;6.35;;;8.60;90.40;;;;;;4987218;28;20022;-67
2022/11/22 02:00:03;;;;;;;13.07;6.00;;;8.60;90.40;;;;;;4995867;28;20030;-66
2022/11/22 02:02:29;;;;;;;13.43;6.57;;;8.60;90.40;;;;;;4995052;28;20030;-71
2022/11/22 02:04:57;;;;;;;18.13;7.13;;;8.60;90.40;;;;;;4997473;28;20036;-70
2022/11/22 02:07:32;;;;;;;16.02;6.93;;;8.50;90.60;;;;;;4988643;28;20053;-72
2022/11/22 02:09:58;;;;;;;12.55;6.90;;;8.60;90.50;;;;;;4992114;28;20029;-68
2022/11/22 02:12:28;;;;;;;14.97;7.03;;;8.60;90.50;;;;;;4993141;28;20951;-73
2022/11/22 02:14:54;;;;;;;16.20;6.90;;;8.60;90.40;;;;;;4996518;28;20076;-73
2022/11/22 02:17:20;;;;;;;26.20;8.60;;;8.50;90.50;;;;;;4985979;28;20376;-61
2022/11/22 02:19:47;;;;;;;23.07;8.73;;;8.50;90.60;;;;;;4990302;28;20030;-67
2022/11/22 02:22:18;;;;;;;15.95;7.32;;;8.50;90.80;;;;;;4991962;28;20400;-60
2022/11/22 02:25:11;;;;;;;14.38;7.78;;;8.50;90.60;;;;;;5000754;28;20029;-68
2022/11/22 02:27:37;;;;;;;15.32;7.60;;;8.50;90.50;;;;;;4986501;28;20037;-60
2022/11/22 02:30:03;;;;;;;14.63;6.40;;;8.50;90.40;;;;;;4990756;28;20034;-69
2022/11/22 02:32:28;;;;;;;16.77;7.20;;;8.50;90.30;;;;;;4994229;28;20121;-61
2022/11/22 02:34:54;;;;;;;13.50;7.33;;;8.50;90.20;;;;;;5000438;28;20137;-66
2022/11/22 02:37:24;;;;;;;23.17;7.33;;;8.40;90.30;;;;;;4990806;28;20038;-64
2022/11/22 02:39:56;;;;;;;17.15;6.72;;;8.40;90.40;;;;;;4984288;28;20113;-61
2022/11/22 02:42:23;;;;;;;17.60;6.07;;;8.40;90.30;;;;;;4990122;28;20055;-56
2022/11/22 02:44:48;;;;;;;18.17;7.13;;;8.40;90.20;;;;;;4988967;28;20139;-56
2022/11/22 02:47:14;;;;;;;13.93;7.40;;;8.30;90.50;;;;;;4986004;28;20031;-57
2022/11/22 02:49:41;;;;;;;13.57;6.53;;;8.30;90.50;;;;;;4997086;28;20031;-57
2022/11/22 02:52:07;;;;;;;16.88;6.45;;;8.30;90.50;;;;;;4988295;28;20038;-55
2022/11/22 02:54:32;;;;;;;10.87;5.50;;;8.30;90.60;;;;;;4984283;28;20033;-66
2022/11/22 02:56:58;;;;;;;10.50;6.23;;;8.30;90.40;;;;;;4986916;28;20301;-64
2022/11/22 02:59:23;;;;;;;17.10;5.80;;;8.40;90.60;;;;;;4993308;28;20014;-70
2022/11/22 03:01:49;;;;;;;19.90;7.60;;;8.40;90.60;;;;;;4993307;28;20030;-73
2022/11/22 03:04:23;;;;;;;22.67;6.70;;;8.30;90.40;;;;;;4989389;28;20076;-74
2022/11/22 03:06:50;;;;;;;17.88;6.60;;;8.40;90.40;;;;;;4994290;28;20495;-67
2022/11/22 03:09:16;;;;;;;13.50;5.47;;;8.40;90.30;;;;;;4994203;28;20025;-73
2022/11/22 03:11:42;;;;;;;19.17;6.63;;;8.40;90.20;;;;;;4994905;28;20046;-72
2022/11/22 03:14:07;;;;;;;16.35;6.43;;;8.30;90.20;;;;;;4987196;28;20405;-73
2022/11/22 03:16:33;;;;;;;18.50;6.73;;;8.30;90.20;;;;;;4987651;28;20062;-70
2022/11/22 03:18:59;;;;;;;14.80;6.63;;;8.20;90.20;;;;;;4989066;28;20056;-74
2022/11/22 03:21:24;;;;;;;14.00;6.63;;;8.20;90.30;;;;;;4989797;28;20049;-62
2022/11/22 03:23:50;;;;;;;14.17;5.97;;;8.20;90.30;;;;;;4995025;28;20022;-61
2022/11/22 03:26:15;;;;;;;18.83;6.80;;;8.20;90.20;;;;;;4988871;28;20040;-69
2022/11/22 03:28:41;;;;;;;17.47;6.77;;;8.10;90.20;;;;;;4991576;28;20049;-65
2022/11/22 03:31:07;;;;;;;20.87;6.37;;;8.10;90.30;;;;;;4991520;28;20045;-62
2022/11/22 03:33:34;;;;;;;13.00;5.63;;;8.10;90.20;;;;;;5003015;28;20037;-71
2022/11/22 03:36:00;;;;;;;13.77;5.70;;;8.10;90.30;;;;;;4992997;28;20027;-64
2022/11/22 03:38:25;;;;;;;14.27;5.15;;;8.10;90.20;;;;;;4995156;28;20403;-60
2022/11/22 03:40:51;;;;;;;16.03;5.97;;;8.10;90.10;;;;;;4994486;28;20043;-74
2022/11/22 03:43:17;;;;;;;14.27;6.37;;;8.10;90.20;;;;;;4990929;28;20038;-68
2022/11/22 03:45:46;;;;;;;12.90;6.17;;;8.10;90.30;;;;;;4983738;28;20044;-66
2022/11/22 03:48:12;;;;;;;12.00;5.20;;;8.00;90.40;;;;;;4992220;28;20045;-69
2022/11/22 03:50:38;;;;;;;16.42;7.10;;;8.00;90.40;;;;;;4996304;28;20030;-70
2022/11/22 03:53:04;;;;;;;15.23;6.50;;;8.10;90.40;;;;;;4989917;28;20043;-61
2022/11/22 03:55:29;;;;;;;13.20;6.10;;;8.10;90.40;;;;;;4996735;28;20053;-67
2022/11/22 03:57:55;;;;;;;13.87;6.50;;;8.10;90.30;;;;;;4994032;28;20120;-73
2022/11/22 04:00:21;;;;;;;19.60;7.37;;;8.00;90.40;;;;;;4994733;28;20169;-69
2022/11/22 04:02:46;;;;;;;14.27;6.80;;;8.00;90.40;;;;;;4996336;28;20585;-67
2022/11/22 04:05:12;;;;;;;13.30;5.93;;;8.00;90.40;;;;;;4991092;28;20034;-69
2022/11/22 04:07:37;;;;;;;17.83;6.37;;;8.00;90.40;;;;;;5003095;28;20499;-65
2022/11/22 04:10:04;;;;;;;13.50;6.03;;;8.00;90.40;;;;;;4991232;28;20534;-71
2022/11/22 04:12:30;;;;;;;21.58;6.20;;;7.90;90.20;;;;;;4988650;28;20030;-68
2022/11/22 04:15:05;;;;;;;18.83;7.97;;;7.90;90.20;;;;;;4993570;28;20081;-72
2022/11/22 04:17:43;;;;;;;14.38;5.68;;;7.90;90.20;;;;;;4994059;28;20030;-73
2022/11/22 04:23:19;;;;;;;13.68;5.85;;;7.90;90.00;;;;;;4988683;28;20038;-71
2022/11/22 04:25:46;;;;;;;19.50;6.57;;;7.90;90.10;;;;;;4993674;28;20062;-73
2022/11/22 04:28:14;;;;;;;15.57;5.90;;;7.90;90.20;;;;;;4997626;28;20065;-70
2022/11/22 04:33:24;;;;;;;10.95;6.03;;;7.80;90.40;;;;;;4994823;28;20050;-68
2022/11/22 04:35:50;;;;;;;15.10;6.13;;;7.80;90.30;;;;;;4995475;28;20042;-61
2022/11/22 04:38:17;;;;;;;12.63;4.80;;;7.90;90.50;;;;;;4992224;28;20030;-64
2022/11/22 04:40:44;;;;;;;15.93;5.63;;;7.80;90.10;;;;;;4997858;28;20665;-60
2022/11/22 04:45:59;;;;;;;11.35;5.00;;;7.80;90.00;;;;;;4990886;28;20284;-66
2022/11/22 04:48:24;;;;;;;17.07;5.70;;;7.80;89.90;;;;;;4987983;28;20018;-55
2022/11/22 04:53:43;;;;;;;16.83;6.78;;;7.70;90.10;;;;;;4994086;28;20049;-56
2022/11/22 04:56:08;;;;;;;19.17;6.38;;;7.70;90.50;;;;;;4993004;28;20026;-58
2022/11/22 04:58:34;;;;;;;19.33;7.70;;;7.70;90.40;;;;;;4993703;28;20492;-55
2022/11/22 05:00:59;;;;;;;23.50;7.47;;;7.70;90.40;;;;;;4990579;28;20061;-56
2022/11/22 05:03:25;;;;;;;21.87;6.90;;;7.70;90.60;;;;;;4998289;28;20022;-56
2022/11/22 05:05:51;;;;;;;16.97;6.57;;;7.70;90.60;;;;;;4996834;28;20019;-56
2022/11/22 05:08:16;;;;;;;16.97;6.63;;;7.70;90.40;;;;;;4987811;28;20376;-58
2022/11/22 05:10:57;;;;;;;14.37;6.03;;;7.70;90.30;;;;;;4997452;28;20049;-55
2022/11/22 05:13:25;;;;;;;16.27;6.18;;;7.70;90.30;;;;;;4992298;28;20081;-67
2022/11/22 05:15:51;;;;;;;16.08;5.90;;;7.80;90.40;;;;;;4991179;28;20029;-70
2022/11/22 05:18:18;;;;;;;12.38;6.20;;;7.80;90.20;;;;;;5001295;28;20045;-67
2022/11/22 05:20:44;;;;;;;15.00;5.50;;;7.80;90.30;;;;;;4987461;28;20030;-68
2022/11/22 05:25:55;;;;;;;19.08;6.00;;;7.80;90.40;;;;;;4992329;28;20104;-68
2022/11/22 05:28:20;;;;;;;14.13;5.77;;;7.80;90.30;;;;;;4990467;28;20031;-72
2022/11/22 05:30:46;;;;;;;15.53;5.10;;;7.80;90.40;;;;;;4988482;28;20847;-72
2022/11/22 05:33:12;;;;;;;17.43;5.70;;;7.80;90.20;;;;;;4995155;28;20056;-69
2022/11/22 05:35:37;;;;;;;12.45;4.85;;;7.80;90.10;;;;;;4987801;28;20418;-64
2022/11/22 05:38:03;;;;;;;17.50;4.10;;;7.70;90.10;;;;;;4987442;28;20411;-64
2022/11/22 05:40:28;;;;;;;12.07;4.63;;;7.70;89.60;;;;;;4993215;28;20088;-59
2022/11/22 05:42:55;;;;;;;12.43;3.90;;;7.70;89.00;;;;;;4995784;28;20062;-73
2022/11/22 05:45:21;;;;;;;6.57;2.22;;;7.60;88.30;;;;;;4993023;28;20529;-59
2022/11/22 05:47:46;;;;;;;12.57;2.33;;;7.60;84.90;;;;;;4994331;28;20026;-64
2022/11/22 05:50:12;;;;;;;11.53;2.73;;;7.70;81.50;;;;;;5000630;28;20414;-75
2022/11/22 05:52:38;;;;;;;14.37;2.40;;;7.70;82.10;;;;;;4989516;28;20087;-65
2022/11/22 05:55:04;;;;;;;5.90;1.97;;;7.60;85.20;;;;;;4999708;28;20022;-68
2022/11/22 05:57:31;;;;;;;8.40;2.60;;;7.60;86.70;;;;;;4997725;28;20038;-64
2022/11/22 05:59:57;;;;;;;8.32;2.40;;;7.60;86.60;;;;;;4993722;28;20038;-66
2022/11/22 06:02:23;;;;;;;11.37;3.47;;;7.60;86.70;;;;;;4996575;28;20033;-68
2022/11/22 06:04:49;;;;;;;14.10;4.00;;;7.60;87.00;;;;;;4995638;28;20380;-71
2022/11/22 06:07:14;;;;;;;10.47;2.60;;;7.60;87.10;;;;;;4993519;28;20030;-71
2022/11/22 06:09:40;;;;;;;15.20;2.90;;;7.60;88.00;;;;;;4992233;28;20406;-53
2022/11/22 06:12:06;;;;;;;18.83;3.10;;;7.50;88.20;;;;;;4994691;28;20143;-74
2022/11/22 06:14:31;;;;;;;13.65;2.88;;;7.50;88.00;;;;;;4990639;28;20038;-63
2022/11/22 06:16:57;;;;;;;18.93;3.40;;;7.50;88.60;;;;;;4990942;28;20049;-63
2022/11/22 06:19:23;;;;;;;13.87;3.73;;;7.50;89.10;;;;;;4990648;28;20022;-70
2022/11/22 06:21:48;;;;;;;11.57;4.30;;;7.50;89.50;;;;;;4987061;28;20042;-64
2022/11/22 06:24:14;;;;;;;18.47;4.73;;;7.50;89.60;;;;;;4988680;28;20023;-67
2022/11/22 06:26:39;;;;;;;14.33;4.43;;;7.50;90.00;;;;;;4996914;28;20576;-62
2022/11/22 06:29:08;;;;;;;14.57;4.30;;;7.50;89.70;;;;;;4986145;28;20027;-71
2022/11/22 06:31:34;;;;;;;16.40;5.07;;;7.50;90.10;;;;;;4994887;28;20029;-68
2022/11/22 06:33:59;;;;;;;17.07;4.70;;;7.50;89.70;;;;;;4990256;28;20498;-73
2022/11/22 06:36:27;;;;;;;14.82;5.03;;;7.50;89.50;;;;;;4994381;28;20034;-70
2022/11/22 06:38:54;;;;;;;15.30;4.60;;;7.50;89.20;;;;;;4996866;28;20068;-74
2022/11/22 06:41:25;;;;;;;13.00;5.32;;;7.50;88.90;;;;;;4992901;28;20122;-68
2022/11/22 06:43:53;;;;;;;14.88;4.65;;;7.50;88.80;;;;;;4996531;28;20026;-69
2022/11/22 06:46:21;;;;;;;19.33;4.43;;;7.50;88.50;;;;;;4991811;28;20030;-66
2022/11/22 06:48:47;;;;;;;9.52;3.72;;;7.50;88.50;;;;;;4994920;28;20536;-63
2022/11/22 06:51:24;;;;;;;6.75;3.53;;;7.50;88.30;;;;;;4992781;28;20121;-61
2022/11/22 06:53:51;;;;;;;12.60;5.10;;;7.60;87.30;;;;;;4993632;28;20069;-60
2022/11/22 06:56:18;;;;;;;14.35;4.05;;;7.50;88.10;;;;;;4989706;28;20072;-64
2022/11/22 06:58:45;;;;;;;10.38;3.42;;;7.50;88.10;;;;;;5000779;28;20095;-60
2022/11/22 07:01:16;;;;;;;9.55;3.50;;;7.50;87.40;;;;;;4995684;28;20037;-58
2022/11/22 07:03:42;;;;;;;15.82;4.28;;;7.40;88.10;;;;;;4998478;28;20029;-63
2022/11/22 07:06:09;;;;;;;9.57;3.95;;;7.40;88.20;;;;;;4995747;28;20128;-61
2022/11/22 07:08:36;;;;;;;11.75;3.35;;;7.40;87.50;;;;;;4999527;28;20044;-68
2022/11/22 07:11:16;;;;;;;11.88;3.58;;;7.40;87.00;;;;;;5002711;28;20023;-68
2022/11/22 07:13:43;;;;;;;16.55;4.10;;;7.40;87.30;;;;;;4991622;28;20580;-59
2022/11/22 07:16:11;;;;;;;15.98;4.78;;;7.40;87.90;;;;;;4998565;28;20038;-55
2022/11/22 07:18:36;;;;;;;13.77;4.57;;;7.40;88.50;;;;;;4997063;28;20057;-58
2022/11/22 07:21:14;;;;;;;27.70;6.63;;;7.40;88.50;;;;;;4990311;28;20533;-59
2022/11/22 07:23:41;;;;;;;20.10;5.20;;;7.40;88.70;;;;;;4990183;28;20038;-56
2022/11/22 07:26:07;;;;;;;12.35;5.22;;;7.40;88.90;;;;;;4985625;28;20589;-52
2022/11/22 07:28:33;;;;;;;18.60;5.07;;;7.40;88.70;;;;;;4999207;28;20029;-51
2022/11/22 07:31:03;;;;;;;15.47;5.13;;;7.40;88.40;;;;;;4991218;28;20475;-70
2022/11/22 07:33:29;;;;;;;17.15;5.43;;;7.40;88.90;;;;;;4996300;28;20039;-56
2022/11/22 07:35:55;;;;;;;18.73;5.40;;;7.40;89.10;;;;;;4994315;28;20100;-55
2022/11/22 07:38:21;;;;;;;21.23;5.67;;;7.40;89.10;;;;;;4992590;28;20511;-51
2022/11/22 07:40:46;;;;;;;16.60;5.05;;;7.40;89.20;;;;;;4996937;28;20497;-53
2022/11/22 07:43:12;;;;;;;12.30;5.07;;;7.50;89.40;;;;;;4992607;28;20236;-52
2022/11/22 07:45:39;;;;;;;18.00;4.82;;;7.50;88.30;;;;;;4996723;28;20053;-64
2022/11/22 07:48:05;;;;;;;10.83;4.17;;;7.60;88.10;;;;;;4996522;28;20557;-65
2022/11/22 07:50:30;;;;;;;19.70;4.85;;;7.60;88.30;;;;;;4990220;28;20030;-70
2022/11/22 07:52:57;;;;;;;14.20;4.80;;;7.60;88.30;;;;;;4987846;28;20073;-67
2022/11/22 07:55:25;;;;;;;14.63;4.22;;;7.50;87.70;;;;;;4994319;28;20034;-65
2022/11/22 07:57:52;;;;;;;14.52;4.60;;;7.60;87.90;;;;;;4991402;28;20080;-56
2022/11/22 08:00:18;;;;;;;14.63;4.75;;;7.60;88.20;;;;;;5001165;28;20030;-55
2022/11/22 08:02:44;;;;;;;14.48;4.55;;;7.60;88.60;;;;;;4991853;28;20060;-68
2022/11/22 08:05:10;;;;;;;9.57;4.00;;;7.60;88.50;;;;;;4999590;28;20089;-68
2022/11/22 08:07:36;;;;;;;14.20;4.70;;;7.60;88.70;;;;;;4997605;28;20038;-64
2022/11/22 08:10:02;;;;;;;19.50;4.40;;;7.60;87.80;;;;;;4992717;28;20034;-63
2022/11/22 08:12:27;;;;;;;19.80;4.95;;;7.60;87.90;;;;;;4990911;28;20030;-62
2022/11/22 08:14:53;;;;;;;11.17;4.70;;;7.60;88.70;;;;;;4993039;28;20470;-63
2022/11/22 08:17:18;;;;;;;17.90;4.93;;;7.60;88.50;;;;;;4990883;28;20069;-58
2022/11/22 08:19:45;;;;;;;17.07;4.93;;;7.70;88.40;;;;;;4981919;28;20119;-62
2022/11/22 08:22:10;;;;;;;17.65;4.78;;;7.70;89.20;;;;;;4986913;28;20413;-62
2022/11/22 08:24:36;;;;;;;17.03;4.70;;;7.70;88.60;;;;;;4992021;28;20113;-61
2022/11/22 08:27:04;;;;;;;17.00;4.80;;;7.70;88.10;;;;;;4993931;28;20069;-61
2022/11/22 08:29:30;;;;;;;17.05;4.60;;;7.80;88.40;;;;;;4990397;28;20474;-61
2022/11/22 08:31:56;;;;;;;17.77;5.07;;;7.80;88.60;;;;;;4994372;28;20074;-66
2022/11/22 08:34:21;;;;;;;17.63;6.00;;;7.90;88.40;;;;;;4991504;28;20342;-55
2022/11/22 08:36:47;;;;;;;20.07;5.07;;;7.90;88.00;;;;;;4993462;28;20042;-60
2022/11/22 08:39:12;;;;;;;14.63;6.27;;;8.00;88.80;;;;;;4990994;28;20030;-72
2022/11/22 08:41:38;;;;;;;20.85;5.75;;;8.00;87.90;;;;;;4993097;28;20115;-65
2022/11/22 08:44:04;;;;;;;15.80;5.00;;;8.10;87.80;;;;;;4993966;28;20033;-69
2022/11/22 08:46:29;;;;;;;21.13;5.40;;;8.10;87.80;;;;;;4993989;28;20380;-63
2022/11/22 08:48:55;;;;;;;20.30;5.37;;;8.20;87.80;;;;;;4995228;28;20388;-71
2022/11/22 08:51:21;;;;;;;18.03;5.27;;;8.20;86.90;;;;;;4999758;28;20754;-66
2022/11/22 08:53:46;;;;;;;18.07;5.00;;;8.30;87.60;;;;;;5001782;28;20045;-69
2022/11/22 08:56:14;;;;;;;12.33;5.57;;;8.30;86.90;;;;;;4987942;28;20569;-62
2022/11/22 08:58:40;;;;;;;13.23;5.75;;;8.30;86.80;;;;;;4991040;28;20424;-61
2022/11/22 09:01:07;;;;;;;23.40;5.13;;;8.30;84.60;;;;;;4999208;28;20094;-61
2022/11/22 09:03:34;;;;;;;13.90;4.25;;;8.40;85.40;;;;;;4994027;28;20046;-66
2022/11/22 09:06:04;;;;;;;14.48;4.20;;;8.40;85.40;;;;;;4988295;28;20030;-63
2022/11/22 09:08:31;;;;;;;18.67;5.78;;;8.50;86.50;;;;;;4991644;28;20038;-62
2022/11/22 09:11:06;;;;;;;17.30;4.85;;;8.40;86.10;;;;;;4997300;28;20109;-65
2022/11/22 09:13:32;;;;;;;22.58;5.57;;;8.40;86.10;;;;;;4996417;28;20050;-58
2022/11/22 09:16:05;;;;;;;13.90;4.68;;;8.40;85.50;;;;;;4989100;28;20483;-62
2022/11/22 09:18:31;;;;;;;16.67;5.55;;;8.50;86.40;;;;;;5000629;28;20048;-59
2022/11/22 09:21:02;;;;;;;15.98;5.53;;;8.50;85.40;;;;;;4988638;28;20026;-65
2022/11/22 09:23:27;;;;;;;11.60;4.78;;;8.60;86.90;;;;;;4993061;28;20045;-58
2022/11/22 09:26:07;;;;;;;19.17;4.83;;;8.70;86.30;;;;;;4996800;28;20034;-68
2022/11/22 09:28:34;;;;;;;17.88;5.00;;;8.70;86.70;;;;;;4991874;28;20030;-61
2022/11/22 09:31:08;;;;;;;16.88;6.35;;;8.70;85.70;;;;;;4993052;28;20041;-55
2022/11/22 09:33:35;;;;;;;18.27;5.85;;;8.70;85.90;;;;;;4992863;28;20037;-59
2022/11/22 09:36:04;;;;;;;18.83;5.15;;;8.80;85.30;;;;;;4994176;28;20022;-64
2022/11/22 09:38:31;;;;;;;18.80;5.28;;;8.80;86.20;;;;;;4994313;28;20065;-61
2022/11/22 09:40:57;;;;;;;25.23;5.25;;;8.90;85.60;;;;;;4988926;28;20035;-57
2022/11/22 09:44:01;;;;;;;18.23;4.95;;;8.90;86.40;;;;;;4991707;28;20407;-68
2022/11/22 09:46:40;;;;;;;17.42;5.20;;;9.00;87.10;;;;;;4986953;28;20057;-57
2022/11/22 09:49:27;;;;;;;18.25;5.25;;;9.00;86.70;;;;;;4989767;28;20030;-57
2022/11/22 09:52:09;;;;;;;15.18;5.20;;;9.10;86.90;;;;;;4980678;28;20130;-66
2022/11/22 09:54:43;;;;;;;29.05;6.13;;;9.10;85.90;;;;;;4990257;28;20044;-62
2022/11/22 09:57:17;;;;;;;17.60;5.65;;;9.20;86.50;;;;;;4985711;28;20022;-67
2022/11/22 09:59:46;;;;;;;18.45;5.35;;;9.20;86.20;;;;;;4982070;28;20037;-72
2022/11/22 10:02:19;;;;;;;14.70;4.85;;;9.10;85.50;;;;;;4990411;28;20097;-53
2022/11/22 10:04:55;;;;;;;16.20;4.20;;;9.20;84.60;;;;;;4993358;28;20806;-56
2022/11/22 10:07:29;;;;;;;25.87;5.83;;;9.20;85.30;;;;;;4986633;28;20030;-65
2022/11/22 10:10:04;;;;;;;16.30;5.28;;;9.30;85.10;;;;;;4989367;28;20034;-64
2022/11/22 10:12:44;;;;;;;15.48;4.80;;;9.40;86.30;;;;;;4988878;28;20145;-61
2022/11/22 10:15:48;;;;;;;18.00;4.72;;;9.60;85.80;;;;;;4986705;28;20409;-64
2022/11/22 10:18:24;;;;;;;12.02;4.55;;;9.70;85.50;;;;;;4986154;28;20146;-57
2022/11/22 10:20:51;;;;;;;106.32;10.85;;;9.80;83.60;;;;;;4997134;28;20025;-64
2022/11/22 10:23:24;;;;;;;94.18;9.82;;;9.80;82.00;;;;;;4986883;28;20023;-75
2022/11/22 10:25:58;;;;;;;13.73;4.22;;;9.80;82.80;;;;;;4988605;28;20521;-64
2022/11/22 10:28:47;;;;;;;11.23;4.13;;;9.90;82.40;;;;;;4985949;28;20026;-76
2022/11/22 10:31:30;;;;;;;14.93;4.88;;;9.90;83.00;;;;;;4992956;28;20114;-75
2022/11/22 10:34:28;;;;;;;16.70;5.20;;;10.00;81.60;;;;;;4987962;28;20038;-70
2022/11/22 10:37:05;;;;;;;9.70;3.60;;;9.90;81.90;;;;;;4981837;28;20045;-70
2022/11/22 10:40:02;;;;;;;12.85;3.75;;;9.90;80.60;;;;;;4996841;28;20510;-72
2022/11/22 10:43:05;;;;;;;12.63;3.40;;;9.90;79.70;;;;;;4988379;28;20053;-75
2022/11/22 10:45:46;;;;;;;10.85;2.95;;;10.00;81.70;;;;;;4991009;28;20058;-67
2022/11/22 10:48:20;;;;;;;9.05;3.30;;;10.00;79.90;;;;;;4990657;28;20062;-69
2022/11/22 10:51:03;;;;;;;7.45;3.10;;;10.00;81.50;;;;;;4993723;28;20490;-75
2022/11/22 10:53:40;;;;;;;10.68;2.58;;;10.00;78.30;;;;;;4987292;28;20043;-74
2022/11/22 10:56:32;;;;;;;10.10;2.75;;;10.00;78.60;;;;;;4984784;28;20030;-66
2022/11/22 10:59:19;;;;;;;12.85;3.67;;;10.10;79.80;;;;;;4984882;28;20084;-67
2022/11/22 11:02:09;;;;;;;14.63;4.47;;;10.10;79.00;;;;;;4992360;28;20030;-67
2022/11/22 11:04:37;;;;;;;7.38;2.58;;;10.30;79.10;;;;;;4995624;28;20026;-68
2022/11/22 11:07:05;;;;;;;7.13;2.60;;;10.30;78.80;;;;;;4986978;28;20027;-63
2022/11/22 11:09:34;;;;;;;12.90;4.05;;;10.30;77.80;;;;;;4990139;28;20029;-59
2022/11/22 11:12:03;;;;;;;6.88;2.35;;;10.30;76.50;;;;;;5001294;28;20502;-62
2022/11/22 11:14:36;;;;;;;9.43;2.80;;;10.30;77.10;;;;;;4991554;28;20377;-62
2022/11/22 11:17:04;;;;;;;8.10;2.42;;;10.30;77.50;;;;;;4985992;28;20038;-67
2022/11/22 11:19:35;;;;;;;8.23;2.70;;;10.30;76.90;;;;;;4991571;28;20058;-61
2022/11/22 11:22:25;;;;;;;10.88;2.55;;;10.20;75.90;;;;;;4998349;28;20044;-59
2022/11/22 11:24:51;;;;;;;8.45;1.73;;;10.20;76.30;;;;;;4990836;28;20035;-67
2022/11/22 11:27:19;;;;;;;6.20;1.47;;;10.20;73.90;;;;;;4993295;28;20056;-63
2022/11/22 11:29:46;;;;;;;9.00;1.80;;;10.30;76.70;;;;;;4991537;28;20152;-61
2022/11/22 11:32:20;;;;;;;7.88;2.40;;;10.30;77.70;;;;;;4989072;28;20554;-65
2022/11/22 11:34:56;;;;;;;7.65;2.90;;;10.30;76.80;;;;;;4988831;28;20124;-67
2022/11/22 11:37:32;;;;;;;12.88;2.20;;;10.30;76.70;;;;;;4990813;28;20035;-57
2022/11/22 11:39:58;;;;;;;4.97;1.90;;;10.20;77.30;;;;;;4991108;28;20041;-68
2022/11/22 11:42:30;;;;;;;6.10;2.27;;;10.20;77.10;;;;;;4990497;28;20035;-73
2022/11/22 11:45:18;;;;;;;10.13;2.60;;;10.20;74.30;;;;;;4992832;28;20054;-58
2022/11/22 11:47:44;;;;;;;6.40;1.70;;;10.20;75.20;;;;;;5000726;28;20045;-61
2022/11/22 11:50:22;;;;;;;9.47;2.50;;;10.10;71.10;;;;;;4992295;28;20035;-66
2022/11/22 11:53:10;;;;;;;5.93;1.90;;;10.10;74.20;;;;;;4991944;28;20042;-69
2022/11/22 11:55:36;;;;;;;11.02;2.30;;;10.00;72.20;;;;;;4993637;28;20041;-70
2022/11/22 11:58:12;;;;;;;7.20;2.20;;;9.90;73.40;;;;;;4995930;28;20030;-59
2022/11/22 12:00:39;;;;;;;6.63;1.85;;;9.80;75.10;;;;;;4990327;28;20558;-63
2022/11/22 12:03:07;;;;;;;6.78;1.70;;;9.70;76.20;;;;;;4990203;28;20443;-75
2022/11/22 12:05:33;;;;;;;3.53;0.93;;;9.80;78.30;;;;;;4997631;28;20076;-66
2022/11/22 12:08:22;;;;;;;5.53;1.67;;;9.80;78.50;;;;;;4999654;28;20437;-77
2022/11/22 12:10:57;;;;;;;8.70;1.27;;;9.90;81.50;;;;;;4994567;28;20030;-70
2022/11/22 12:13:41;;;;;;;7.40;1.73;;;9.80;82.60;;;;;;4993462;28;20465;-65
2022/11/22 12:16:09;;;;;;;12.55;2.22;;;9.80;81.20;;;;;;4993300;28;20085;-64
2022/11/22 12:19:12;;;;;;;11.30;3.38;;;9.90;82.20;;;;;;5001834;28;20033;-57
2022/11/22 12:21:50;;;;;;;7.63;3.45;;;9.90;81.80;;;;;;4985925;28;20061;-57
2022/11/22 12:24:38;;;;;;;10.93;2.10;;;9.80;81.10;;;;;;4989673;28;20842;-56
2022/11/22 12:27:07;;;;;;;7.93;2.45;;;9.80;82.30;;;;;;4998021;28;20042;-56
2022/11/22 12:29:36;;;;;;;8.85;2.28;;;9.70;82.40;;;;;;4991890;28;20030;-59
2022/11/22 12:32:22;;;;;;;7.93;2.33;;;9.70;83.00;;;;;;4990458;28;20037;-62
2022/11/22 12:34:57;;;;;;;8.48;2.22;;;9.70;81.60;;;;;;4992235;28;20029;-58
2022/11/22 12:37:33;;;;;;;6.13;1.92;;;9.80;82.10;;;;;;4986411;28;20399;-64
2022/11/22 12:40:03;;;;;;;12.63;2.95;;;9.80;82.80;;;;;;4990367;28;20038;-68
2022/11/22 12:42:40;;;;;;;4.25;1.73;;;9.80;82.70;;;;;;4992436;28;20053;-69
2022/11/22 12:45:23;;;;;;;5.68;2.17;;;9.70;83.00;;;;;;4989605;28;20037;-62
2022/11/22 12:47:50;;;;;;;8.23;2.15;;;9.80;83.90;;;;;;4990465;28;20040;-66
2022/11/22 12:50:40;;;;;;;11.80;2.65;;;9.70;83.00;;;;;;4987400;28;20029;-62
2022/11/22 12:53:16;;;;;;;7.03;2.03;;;9.70;83.40;;;;;;4982943;28;20049;-63
2022/11/22 12:55:53;;;;;;;14.10;3.30;;;9.70;82.60;;;;;;4995620;28;20031;-69
2022/11/22 12:58:18;;;;;;;7.90;3.20;;;9.70;83.90;;;;;;4990880;28;20498;-67
2022/11/22 13:01:04;;;;;;;12.00;3.20;;;9.70;83.80;;;;;;4988750;28;20026;-69
2022/11/22 13:03:36;;;;;;;11.93;3.72;;;9.80;84.40;;;;;;4985624;28;20447;-64
2022/11/22 13:06:06;;;;;;;10.50;3.42;;;9.90;84.30;;;;;;4986863;28;20030;-58
2022/11/22 13:09:01;;;;;;;9.18;2.95;;;9.90;84.40;;;;;;4994012;28;20040;-70
2022/11/22 13:11:44;;;;;;;9.88;3.10;;;9.90;83.60;;;;;;4992498;28;20030;-66
2022/11/22 13:14:14;;;;;;;12.32;3.20;;;9.90;82.60;;;;;;4988943;28;20038;-66
2022/11/22 13:16:40;;;;;;;6.53;1.38;;;9.80;81.60;;;;;;4986644;28;20022;-62